createdAt,value
2023-03-30T00:01:43.367Z,21.85
2023-03-30T00:06:48.466Z,21.80
2023-03-30T00:11:51.373Z,21.74
2023-03-30T00:16:54.276Z,21.69
2023-03-30T00:21:58.474Z,21.64
2023-03-30T00:27:01.449Z,21.60
2023-03-30T00:32:04.234Z,21.57
2023-03-30T00:37:08.361Z,21.50
2023-03-30T00:42:17.163Z,21.47
2023-03-30T00:47:22.980Z,21.43
2023-03-30T00:52:28.009Z,21.40
2023-03-30T00:57:31.399Z,21.36
2023-03-30T01:02:39.523Z,21.36
2023-03-30T01:07:46.310Z,21.30
2023-03-30T01:12:49.869Z,21.28
2023-03-30T01:18:08.775Z,21.26
2023-03-30T01:23:39.042Z,21.21
2023-03-30T01:28:50.044Z,21.18
2023-03-30T01:34:28.910Z,21.12
2023-03-30T01:39:44.886Z,21.11
2023-03-30T01:44:58.127Z,21.08
2023-03-30T01:50:06.530Z,21.05
2023-03-30T01:55:16.804Z,21.02
2023-03-30T02:00:23.623Z,20.97
2023-03-30T02:05:27.956Z,20.97
2023-03-30T02:10:36.286Z,20.96
2023-03-30T02:15:42.782Z,20.94
2023-03-30T02:20:45.786Z,20.91
2023-03-30T02:25:49.870Z,20.88
2023-03-30T02:30:53.475Z,20.84
2023-03-30T02:36:14.684Z,20.83
2023-03-30T02:41:34.810Z,20.80
2023-03-30T02:47:00.981Z,20.78
2023-03-30T02:52:15.785Z,20.77
2023-03-30T02:57:32.844Z,20.77
2023-03-30T03:02:59.572Z,20.73
2023-03-30T03:08:06.028Z,20.73
2023-03-30T03:13:11.496Z,20.71
2023-03-30T03:18:18.477Z,20.68
2023-03-30T03:23:21.501Z,20.68
2023-03-30T03:28:28.401Z,20.67
2023-03-30T03:33:37.512Z,20.66
2023-03-30T03:38:49.939Z,20.65
2023-03-30T03:43:54.574Z,20.66
2023-03-30T03:48:57.586Z,20.64
2023-03-30T03:54:01.374Z,20.62
2023-03-30T03:59:05.770Z,20.59
2023-03-30T04:04:08.552Z,20.58
2023-03-30T04:09:11.481Z,20.60
2023-03-30T04:14:46.726Z,20.58
2023-03-30T04:20:23.403Z,20.57
2023-03-30T04:25:45.677Z,20.55
2023-03-30T04:31:18.594Z,20.53
2023-03-30T04:36:43.215Z,20.51
2023-03-30T04:42:20.032Z,20.51
2023-03-30T04:47:44.671Z,20.50
2023-03-30T04:53:05.641Z,20.49
2023-03-30T04:58:34.628Z,20.49
2023-03-30T05:03:57.561Z,20.47
2023-03-30T05:09:14.643Z,20.46
2023-03-30T05:14:35.748Z,20.44
2023-03-30T05:20:00.203Z,20.44
2023-03-30T05:25:16.259Z,20.41
2023-03-30T05:30:29.776Z,20.42
2023-03-30T05:35:52.788Z,20.41
2023-03-30T05:41:09.245Z,20.40
2023-03-30T05:46:28.013Z,20.40
2023-03-30T05:51:52.294Z,20.39
2023-03-30T05:57:18.342Z,20.39
2023-03-30T06:02:53.728Z,20.39
2023-03-30T06:08:01.621Z,20.40
2023-03-30T06:13:05.961Z,20.38
2023-03-30T06:18:17.705Z,20.36
2023-03-30T06:23:30.030Z,20.37
2023-03-30T06:28:38.063Z,20.38
2023-03-30T06:33:42.085Z,20.40
2023-03-30T06:38:48.750Z,20.41
2023-03-30T06:43:53.298Z,20.42
2023-03-30T06:48:57.901Z,20.43
2023-03-30T06:54:20.437Z,20.43
2023-03-30T06:59:32.511Z,20.42
2023-03-30T07:04:55.657Z,20.44
2023-03-30T07:10:11.071Z,20.20
2023-03-30T07:15:14.667Z,20.17
2023-03-30T07:20:18.025Z,19.84
2023-03-30T07:25:54.333Z,20.07
2023-03-30T07:31:06.177Z,20.12
2023-03-30T07:36:10.745Z,20.12
2023-03-30T07:41:17.975Z,19.90
2023-03-30T07:46:24.398Z,19.86
2023-03-30T07:51:30.413Z,19.83
2023-03-30T07:56:44.779Z,19.83
2023-03-30T08:01:50.226Z,19.76
2023-03-30T08:07:09.942Z,19.78
2023-03-30T08:12:14.711Z,20.10
2023-03-30T08:17:19.206Z,20.26
2023-03-30T08:22:22.345Z,20.36
2023-03-30T08:27:26.720Z,20.45
2023-03-30T08:32:29.715Z,20.52
2023-03-30T08:37:32.634Z,20.57
2023-03-30T08:43:12.231Z,20.61
2023-03-30T08:48:19.499Z,20.65
2023-03-30T08:53:22.852Z,20.65
2023-03-30T08:58:35.820Z,20.67
2023-03-30T09:03:43.575Z,20.69
2023-03-30T09:08:49.477Z,20.70
2023-03-30T09:13:56.091Z,20.73
2023-03-30T09:19:01.960Z,20.54
2023-03-30T09:24:14.051Z,20.67
2023-03-30T09:29:21.192Z,20.71
2023-03-30T09:34:28.192Z,20.73
2023-03-30T09:39:33.630Z,20.56
2023-03-30T09:44:43.761Z,20.70
2023-03-30T09:49:47.183Z,20.73
2023-03-30T09:54:49.936Z,20.74
2023-03-30T09:59:55.811Z,20.76
2023-03-30T10:05:02.262Z,20.77
2023-03-30T10:10:16.447Z,20.78
2023-03-30T10:15:24.503Z,20.54
2023-03-30T10:20:30.720Z,20.54
2023-03-30T10:25:34.948Z,20.48
2023-03-30T10:30:39.180Z,20.43
2023-03-30T10:35:42.131Z,20.42
2023-03-30T10:40:47.242Z,20.30
2023-03-30T10:45:53.991Z,20.23
2023-03-30T10:51:03.087Z,20.17
2023-03-30T10:56:16.928Z,20.16
2023-03-30T11:01:26.701Z,20.16
2023-03-30T11:06:33.946Z,20.09
2023-03-30T11:11:41.839Z,20.13
2023-03-30T11:16:53.813Z,20.10
2023-03-30T11:22:04.327Z,20.12
2023-03-30T11:27:15.729Z,20.08
2023-03-30T11:32:30.965Z,20.05
2023-03-30T11:37:38.390Z,20.11
2023-03-30T11:42:41.320Z,20.10
2023-03-30T11:48:06.720Z,20.26
2023-03-30T11:53:24.318Z,20.26
2023-03-30T11:58:36.369Z,20.34
2023-03-30T12:03:43.780Z,20.33
2023-03-30T12:09:07.189Z,20.17
2023-03-30T12:14:36.967Z,20.37
2023-03-30T12:19:55.568Z,20.56
2023-03-30T12:25:06.327Z,20.65
2023-03-30T12:30:15.884Z,20.71
2023-03-30T12:35:52.827Z,20.78
2023-03-30T12:41:06.082Z,20.86
2023-03-30T12:46:19.893Z,20.94
2023-03-30T12:51:41.231Z,21.01
2023-03-30T12:56:51.515Z,21.08
2023-03-30T13:02:38.929Z,21.13
2023-03-30T13:07:44.662Z,21.14
2023-03-30T13:12:49.727Z,21.16
2023-03-30T13:17:59.364Z,21.25
2023-03-30T13:23:26.226Z,21.30
2023-03-30T13:28:56.501Z,21.32
2023-03-30T13:34:06.718Z,21.32
2023-03-30T13:39:17.691Z,21.35
2023-03-30T13:44:40.004Z,21.36
2023-03-30T13:49:51.546Z,21.42
2023-03-30T13:54:55.794Z,21.79
2023-03-30T14:00:06.047Z,21.64
2023-03-30T14:05:15.537Z,21.63
2023-03-30T14:10:22.087Z,21.69
2023-03-30T14:15:29.177Z,21.73
2023-03-30T14:20:46.586Z,21.78
2023-03-30T14:25:54.575Z,21.72
2023-03-30T14:30:59.166Z,21.71
2023-03-30T14:36:03.781Z,21.71
2023-03-30T14:41:11.193Z,21.71
2023-03-30T14:46:14.219Z,21.68
2023-03-30T14:51:26.868Z,21.65
2023-03-30T14:56:32.635Z,21.62
2023-03-30T15:01:35.919Z,21.58
2023-03-30T15:06:39.197Z,21.48
2023-03-30T15:11:45.798Z,21.43
2023-03-30T15:16:53.604Z,21.39
2023-03-30T15:22:00.961Z,21.38
2023-03-30T15:27:07.788Z,21.36
2023-03-30T15:32:16.317Z,21.34
2023-03-30T15:37:23.940Z,21.33
2023-03-30T15:42:31.513Z,21.32
2023-03-30T15:47:35.216Z,21.29
2023-03-30T15:52:43.092Z,21.24
2023-03-30T15:57:52.655Z,21.30
2023-03-30T16:02:58.465Z,21.24
2023-03-30T16:08:01.543Z,21.23
2023-03-30T16:13:06.976Z,21.14
2023-03-30T16:18:11.759Z,21.17
2023-03-30T16:23:14.553Z,21.35
2023-03-30T16:28:19.259Z,22.21
2023-03-30T16:33:22.051Z,21.97
2023-03-30T16:38:24.899Z,21.90
2023-03-30T16:43:29.247Z,21.98
2023-03-30T16:48:32.060Z,22.06
2023-03-30T16:53:35.119Z,22.08
2023-03-30T16:58:39.735Z,22.17
2023-03-30T17:03:42.635Z,22.17
2023-03-30T17:08:45.908Z,22.14
2023-03-30T17:13:51.223Z,22.26
2023-03-30T17:18:54.063Z,22.23
2023-03-30T17:23:57.826Z,22.07
2023-03-30T17:29:02.153Z,22.04
2023-03-30T17:34:06.658Z,22.14
2023-03-30T17:39:13.059Z,22.21
2023-03-30T17:44:17.187Z,22.28
2023-03-30T17:49:20.041Z,22.20
2023-03-30T17:54:24.021Z,22.12
2023-03-30T17:59:28.240Z,22.30
2023-03-30T18:04:31.094Z,22.13
2023-03-30T18:09:34.282Z,22.09
2023-03-30T18:14:38.421Z,22.30
2023-03-30T18:19:41.249Z,22.42
2023-03-30T18:24:43.983Z,22.40
2023-03-30T18:29:48.142Z,22.42
2023-03-30T18:34:50.985Z,22.47
2023-03-30T18:39:53.795Z,22.41
2023-03-30T18:44:58.065Z,22.48
2023-03-30T18:50:00.821Z,22.47
2023-03-30T18:55:03.657Z,22.54
2023-03-30T19:00:19.666Z,22.54
2023-03-30T19:05:24.232Z,22.59
2023-03-30T19:10:30.789Z,22.57
2023-03-30T19:15:36.705Z,22.56
2023-03-30T19:20:41.332Z,22.64
2023-03-30T19:25:45.281Z,22.51
2023-03-30T19:30:49.492Z,22.65
2023-03-30T19:35:52.370Z,22.66
2023-03-30T19:41:00.844Z,22.60
2023-03-30T19:46:06.033Z,22.65
2023-03-30T19:51:09.123Z,22.78
2023-03-30T19:56:12.691Z,22.73
2023-03-30T20:01:16.859Z,22.74
2023-03-30T20:06:19.748Z,22.71
2023-03-30T20:11:23.341Z,22.63
2023-03-30T20:16:30.003Z,22.74
2023-03-30T20:21:33.852Z,22.74
2023-03-30T20:26:36.848Z,22.76
2023-03-30T20:31:41.174Z,22.73
2023-03-30T20:36:44.806Z,22.73
2023-03-30T20:41:47.796Z,22.91
2023-03-30T20:46:57.936Z,22.77
2023-03-30T20:52:01.966Z,22.73
2023-03-30T20:57:04.804Z,22.72
2023-03-30T21:02:11.567Z,22.63
2023-03-30T21:07:16.188Z,22.69
2023-03-30T21:12:19.016Z,22.82
2023-03-30T21:17:23.121Z,22.90
2023-03-30T21:22:25.958Z,22.97
2023-03-30T21:27:28.916Z,23.04
2023-03-30T21:32:33.327Z,23.05
2023-03-30T21:37:36.230Z,23.08
2023-03-30T21:42:39.011Z,23.09
2023-03-30T21:47:43.207Z,23.10
2023-03-30T21:52:46.093Z,23.09
2023-03-30T21:57:48.799Z,23.07
2023-03-30T22:02:53.009Z,23.05
2023-03-30T22:07:55.846Z,23.03
2023-03-30T22:12:58.684Z,22.99
2023-03-30T22:18:03.476Z,22.98
2023-03-30T22:23:07.519Z,22.96
2023-03-30T22:28:11.899Z,22.92
2023-03-30T22:33:17.299Z,22.90
2023-03-30T22:38:20.115Z,22.85
2023-03-30T22:43:23.041Z,22.80
2023-03-30T22:48:27.157Z,22.76
2023-03-30T22:53:30.271Z,22.73
2023-03-30T22:58:33.013Z,22.63
2023-03-30T23:03:37.196Z,22.59
2023-03-30T23:08:40.008Z,22.51
2023-03-30T23:13:43.068Z,22.44
2023-03-30T23:18:47.513Z,22.38
2023-03-30T23:23:50.828Z,22.33
2023-03-30T23:28:53.636Z,22.22
2023-03-30T23:33:58.028Z,22.17
2023-03-30T23:39:01.025Z,22.17
2023-03-30T23:44:03.976Z,22.10
2023-03-30T23:49:08.119Z,22.06
2023-03-30T23:54:10.932Z,21.97
2023-03-30T23:59:14.144Z,21.91
